sensor_id;sensor_type;location;lat;lon;timestamp;pressure;altitude;pressure_sealevel;temperature;humidity
37904;BME280;23738;50.422;18.758;2024-01-16T00:01:54;96807.38;;;-0.64;82.84
37904;BME280;23738;50.422;18.758;2024-01-16T00:04:24;96809.20;;;-0.62;83.12
37904;BME280;23738;50.422;18.758;2024-01-16T00:06:55;96810.84;;;-0.62;83.03
37904;BME280;23738;50.422;18.758;2024-01-16T00:09:25;96814.42;;;-0.62;83.04
37904;BME280;23738;50.422;18.758;2024-01-16T00:11:55;96817.96;;;-0.63;83.13
37904;BME280;23738;50.422;18.758;2024-01-16T00:14:36;96813.46;;;-0.66;83.45
37904;BME280;23738;50.422;18.758;2024-01-16T00:17:06;96815.19;;;-0.67;83.39
37904;BME280;23738;50.422;18.758;2024-01-16T00:19:36;96821.11;;;-0.68;83.35
37904;BME280;23738;50.422;18.758;2024-01-16T00:22:06;96821.90;;;-0.68;83.57
37904;BME280;23738;50.422;18.758;2024-01-16T00:24:36;96823.55;;;-0.69;83.23
37904;BME280;23738;50.422;18.758;2024-01-16T00:27:06;96826.34;;;-0.71;83.47
37904;BME280;23738;50.422;18.758;2024-01-16T00:29:36;96826.06;;;-0.72;83.38
37904;BME280;23738;50.422;18.758;2024-01-16T00:32:07;96834.55;;;-0.72;83.91
37904;BME280;23738;50.422;18.758;2024-01-16T00:34:37;96831.39;;;-0.73;83.84
37904;BME280;23738;50.422;18.758;2024-01-16T00:37:07;96832.56;;;-0.74;83.76
37904;BME280;23738;50.422;18.758;2024-01-16T00:39:37;96831.88;;;-0.76;83.89
37904;BME280;23738;50.422;18.758;2024-01-16T00:42:07;96836.65;;;-0.77;83.73
37904;BME280;23738;50.422;18.758;2024-01-16T00:44:37;96840.63;;;-0.75;83.78
37904;BME280;23738;50.422;18.758;2024-01-16T00:47:07;96842.02;;;-0.73;83.66
37904;BME280;23738;50.422;18.758;2024-01-16T00:49:38;96844.84;;;-0.73;83.72
37904;BME280;23738;50.422;18.758;2024-01-16T00:52:08;96847.34;;;-0.73;83.85
37904;BME280;23738;50.422;18.758;2024-01-16T00:54:38;96843.41;;;-0.75;83.70
37904;BME280;23738;50.422;18.758;2024-01-16T00:57:08;96846.05;;;-0.76;83.89
37904;BME280;23738;50.422;18.758;2024-01-16T00:59:39;96847.98;;;-0.74;83.75
37904;BME280;23738;50.422;18.758;2024-01-16T01:02:09;96853.11;;;-0.72;83.73
37904;BME280;23738;50.422;18.758;2024-01-16T01:04:40;96857.66;;;-0.71;83.70
37904;BME280;23738;50.422;18.758;2024-01-16T01:07:14;96857.06;;;-0.72;83.72
37904;BME280;23738;50.422;18.758;2024-01-16T01:09:44;96859.80;;;-0.75;83.86
37904;BME280;23738;50.422;18.758;2024-01-16T01:12:14;96855.70;;;-0.74;83.88
37904;BME280;23738;50.422;18.758;2024-01-16T01:14:43;96851.49;;;-0.73;83.89
37904;BME280;23738;50.422;18.758;2024-01-16T01:17:13;96853.84;;;-0.71;83.79
37904;BME280;23738;50.422;18.758;2024-01-16T01:19:44;96848.70;;;-0.69;83.71
37904;BME280;23738;50.422;18.758;2024-01-16T01:22:14;96846.14;;;-0.69;83.74
37904;BME280;23738;50.422;18.758;2024-01-16T01:24:44;96855.67;;;-0.66;83.74
37904;BME280;23738;50.422;18.758;2024-01-16T01:27:14;96852.71;;;-0.67;83.81
37904;BME280;23738;50.422;18.758;2024-01-16T01:29:44;96854.50;;;-0.68;83.77
37904;BME280;23738;50.422;18.758;2024-01-16T01:32:14;96854.56;;;-0.68;83.80
37904;BME280;23738;50.422;18.758;2024-01-16T01:34:44;96854.08;;;-0.67;83.74
37904;BME280;23738;50.422;18.758;2024-01-16T01:37:14;96856.77;;;-0.65;83.67
37904;BME280;23738;50.422;18.758;2024-01-16T01:39:44;96861.14;;;-0.61;83.78
37904;BME280;23738;50.422;18.758;2024-01-16T01:42:14;96858.81;;;-0.55;83.83
37904;BME280;23738;50.422;18.758;2024-01-16T01:44:44;96855.81;;;-0.52;83.85
37904;BME280;23738;50.422;18.758;2024-01-16T01:47:14;96855.33;;;-0.51;83.79
37904;BME280;23738;50.422;18.758;2024-01-16T01:49:44;96855.73;;;-0.50;83.60
37904;BME280;23738;50.422;18.758;2024-01-16T01:52:15;96852.29;;;-0.51;83.74
37904;BME280;23738;50.422;18.758;2024-01-16T01:54:46;96850.95;;;-0.55;83.64
37904;BME280;23738;50.422;18.758;2024-01-16T01:57:17;96853.19;;;-0.55;83.55
37904;BME280;23738;50.422;18.758;2024-01-16T01:59:48;96855.98;;;-0.55;83.55
37904;BME280;23738;50.422;18.758;2024-01-16T02:02:18;96860.33;;;-0.54;83.43
37904;BME280;23738;50.422;18.758;2024-01-16T02:04:48;96859.90;;;-0.53;83.44
37904;BME280;23738;50.422;18.758;2024-01-16T02:07:19;96857.64;;;-0.53;83.54
37904;BME280;23738;50.422;18.758;2024-01-16T02:09:48;96856.70;;;-0.55;83.63
37904;BME280;23738;50.422;18.758;2024-01-16T02:12:19;96857.44;;;-0.54;83.57
37904;BME280;23738;50.422;18.758;2024-01-16T02:14:49;96865.59;;;-0.56;83.56
37904;BME280;23738;50.422;18.758;2024-01-16T02:17:19;96868.98;;;-0.57;83.58
37904;BME280;23738;50.422;18.758;2024-01-16T02:19:49;96869.33;;;-0.55;83.72
37904;BME280;23738;50.422;18.758;2024-01-16T02:22:21;96870.41;;;-0.54;83.74
37904;BME280;23738;50.422;18.758;2024-01-16T02:24:55;96873.94;;;-0.53;83.68
37904;BME280;23738;50.422;18.758;2024-01-16T02:27:25;96883.11;;;-0.55;83.72
37904;BME280;23738;50.422;18.758;2024-01-16T02:29:55;96887.55;;;-0.54;83.72
37904;BME280;23738;50.422;18.758;2024-01-16T02:32:25;96894.05;;;-0.54;83.93
37904;BME280;23738;50.422;18.758;2024-01-16T02:34:54;96902.44;;;-0.53;84.09
37904;BME280;23738;50.422;18.758;2024-01-16T02:37:24;96908.04;;;-0.56;84.73
37904;BME280;23738;50.422;18.758;2024-01-16T02:39:54;96909.30;;;-0.65;85.44
37904;BME280;23738;50.422;18.758;2024-01-16T02:42:24;96910.84;;;-0.75;85.77
37904;BME280;23738;50.422;18.758;2024-01-16T02:44:54;96916.33;;;-0.80;86.14
37904;BME280;23738;50.422;18.758;2024-01-16T02:47:24;96910.86;;;-0.84;85.90
37904;BME280;23738;50.422;18.758;2024-01-16T02:49:54;96902.53;;;-0.87;85.48
37904;BME280;23738;50.422;18.758;2024-01-16T02:52:24;96907.79;;;-0.87;85.71
37904;BME280;23738;50.422;18.758;2024-01-16T02:54:54;96917.79;;;-0.90;85.92
37904;BME280;23738;50.422;18.758;2024-01-16T02:57:24;96916.83;;;-0.92;86.10
37904;BME280;23738;50.422;18.758;2024-01-16T02:59:54;96917.89;;;-0.94;85.89
37904;BME280;23738;50.422;18.758;2024-01-16T03:02:23;96923.91;;;-0.93;85.83
37904;BME280;23738;50.422;18.758;2024-01-16T03:04:53;96929.81;;;-0.91;85.85
37904;BME280;23738;50.422;18.758;2024-01-16T03:07:23;96933.97;;;-0.90;86.24
37904;BME280;23738;50.422;18.758;2024-01-16T03:09:53;96936.08;;;-0.90;86.96
37904;BME280;23738;50.422;18.758;2024-01-16T03:12:23;96935.97;;;-0.95;86.88
37904;BME280;23738;50.422;18.758;2024-01-16T03:14:52;96942.59;;;-0.96;87.17
37904;BME280;23738;50.422;18.758;2024-01-16T03:17:22;96945.23;;;-0.98;86.91
37904;BME280;23738;50.422;18.758;2024-01-16T03:19:52;96954.23;;;-0.96;86.60
37904;BME280;23738;50.422;18.758;2024-01-16T03:22:22;96949.88;;;-0.96;86.52
37904;BME280;23738;50.422;18.758;2024-01-16T03:24:52;96950.68;;;-0.94;86.67
37904;BME280;23738;50.422;18.758;2024-01-16T03:27:22;96958.03;;;-0.93;87.23
37904;BME280;23738;50.422;18.758;2024-01-16T03:29:52;96956.88;;;-0.95;86.88
37904;BME280;23738;50.422;18.758;2024-01-16T03:32:22;96958.77;;;-0.97;87.24
37904;BME280;23738;50.422;18.758;2024-01-16T03:34:52;96958.64;;;-1.00;87.00
37904;BME280;23738;50.422;18.758;2024-01-16T03:37:21;96957.94;;;-1.03;87.76
37904;BME280;23738;50.422;18.758;2024-01-16T03:39:51;96960.66;;;-1.04;87.09
37904;BME280;23738;50.422;18.758;2024-01-16T03:42:23;96968.73;;;-1.04;87.86
37904;BME280;23738;50.422;18.758;2024-01-16T03:44:53;96973.17;;;-1.06;88.38
37904;BME280;23738;50.422;18.758;2024-01-16T03:47:23;96999.52;;;-1.09;89.96
37904;BME280;23738;50.422;18.758;2024-01-16T03:49:53;97008.52;;;-1.12;90.25
37904;BME280;23738;50.422;18.758;2024-01-16T03:52:23;97015.10;;;-1.14;88.17
37904;BME280;23738;50.422;18.758;2024-01-16T03:54:53;97028.73;;;-1.14;88.28
37904;BME280;23738;50.422;18.758;2024-01-16T03:57:23;97036.47;;;-1.19;89.22
37904;BME280;23738;50.422;18.758;2024-01-16T03:59:53;97042.27;;;-1.26;89.03
37904;BME280;23738;50.422;18.758;2024-01-16T04:02:23;97051.98;;;-1.34;88.55
37904;BME280;23738;50.422;18.758;2024-01-16T04:04:53;97055.27;;;-1.39;88.00
37904;BME280;23738;50.422;18.758;2024-01-16T04:07:25;97052.98;;;-1.42;88.63
37904;BME280;23738;50.422;18.758;2024-01-16T04:09:55;97038.27;;;-1.47;88.43
37904;BME280;23738;50.422;18.758;2024-01-16T04:12:25;97041.80;;;-1.49;88.09
37904;BME280;23738;50.422;18.758;2024-01-16T04:14:55;97037.66;;;-1.52;87.89
37904;BME280;23738;50.422;18.758;2024-01-16T04:17:25;97043.98;;;-1.56;87.74
37904;BME280;23738;50.422;18.758;2024-01-16T04:19:55;97045.77;;;-1.59;87.61
37904;BME280;23738;50.422;18.758;2024-01-16T04:22:25;97058.26;;;-1.63;88.11
37904;BME280;23738;50.422;18.758;2024-01-16T04:24:55;97065.78;;;-1.69;87.57
37904;BME280;23738;50.422;18.758;2024-01-16T04:27:25;97075.77;;;-1.72;87.46
37904;BME280;23738;50.422;18.758;2024-01-16T04:29:55;97068.94;;;-1.75;87.62
37904;BME280;23738;50.422;18.758;2024-01-16T04:32:24;97050.95;;;-1.77;87.44
37904;BME280;23738;50.422;18.758;2024-01-16T04:34:54;97051.41;;;-1.78;87.38
37904;BME280;23738;50.422;18.758;2024-01-16T04:37:24;97054.67;;;-1.75;87.50
37904;BME280;23738;50.422;18.758;2024-01-16T04:39:54;97063.73;;;-1.76;87.31
37904;BME280;23738;50.422;18.758;2024-01-16T04:42:26;97065.19;;;-1.78;87.27
37904;BME280;23738;50.422;18.758;2024-01-16T04:44:56;97073.00;;;-1.80;87.50
37904;BME280;23738;50.422;18.758;2024-01-16T04:47:26;97073.96;;;-1.83;87.28
37904;BME280;23738;50.422;18.758;2024-01-16T04:49:56;97072.55;;;-1.83;87.30
37904;BME280;23738;50.422;18.758;2024-01-16T04:52:25;97077.95;;;-1.80;87.43
37904;BME280;23738;50.422;18.758;2024-01-16T04:54:56;97082.96;;;-1.77;87.23
37904;BME280;23738;50.422;18.758;2024-01-16T04:57:25;97089.19;;;-1.75;87.26
37904;BME280;23738;50.422;18.758;2024-01-16T04:59:55;97094.14;;;-1.75;87.37
37904;BME280;23738;50.422;18.758;2024-01-16T05:02:25;97104.45;;;-1.74;87.46
37904;BME280;23738;50.422;18.758;2024-01-16T05:04:55;97109.09;;;-1.77;87.31
37904;BME280;23738;50.422;18.758;2024-01-16T05:07:26;97108.50;;;-1.80;87.33
37904;BME280;23738;50.422;18.758;2024-01-16T05:09:56;97108.23;;;-1.81;87.57
37904;BME280;23738;50.422;18.758;2024-01-16T05:12:26;97105.88;;;-1.79;87.46
37904;BME280;23738;50.422;18.758;2024-01-16T05:14:56;97105.89;;;-1.76;87.43
37904;BME280;23738;50.422;18.758;2024-01-16T05:17:26;97103.24;;;-1.73;87.48
37904;BME280;23738;50.422;18.758;2024-01-16T05:19:56;97108.44;;;-1.68;87.69
37904;BME280;23738;50.422;18.758;2024-01-16T05:22:26;97110.23;;;-1.65;87.60
37904;BME280;23738;50.422;18.758;2024-01-16T05:24:56;97112.21;;;-1.64;87.66
37904;BME280;23738;50.422;18.758;2024-01-16T05:27:26;97110.73;;;-1.63;87.75
37904;BME280;23738;50.422;18.758;2024-01-16T05:29:56;97110.89;;;-1.63;87.78
37904;BME280;23738;50.422;18.758;2024-01-16T05:32:25;97119.06;;;-1.64;87.77
37904;BME280;23738;50.422;18.758;2024-01-16T05:34:55;97125.13;;;-1.64;87.79
37904;BME280;23738;50.422;18.758;2024-01-16T05:37:25;97131.20;;;-1.64;87.62
37904;BME280;23738;50.422;18.758;2024-01-16T05:39:58;97131.05;;;-1.61;87.57
37904;BME280;23738;50.422;18.758;2024-01-16T05:42:27;97135.76;;;-1.57;87.70
37904;BME280;23738;50.422;18.758;2024-01-16T05:44:57;97142.64;;;-1.51;87.76
37904;BME280;23738;50.422;18.758;2024-01-16T05:47:27;97145.31;;;-1.47;87.79
37904;BME280;23738;50.422;18.758;2024-01-16T05:49:58;97147.52;;;-1.45;87.97
37904;BME280;23738;50.422;18.758;2024-01-16T05:52:28;97147.59;;;-1.43;87.92
37904;BME280;23738;50.422;18.758;2024-01-16T05:54:58;97147.85;;;-1.45;88.12
37904;BME280;23738;50.422;18.758;2024-01-16T05:57:28;97148.26;;;-1.45;87.92
37904;BME280;23738;50.422;18.758;2024-01-16T06:00:00;97152.55;;;-1.48;87.94
37904;BME280;23738;50.422;18.758;2024-01-16T06:02:31;97164.33;;;-1.50;87.67
37904;BME280;23738;50.422;18.758;2024-01-16T06:05:01;97169.64;;;-1.50;87.75
37904;BME280;23738;50.422;18.758;2024-01-16T06:07:32;97174.12;;;-1.48;87.74
37904;BME280;23738;50.422;18.758;2024-01-16T06:10:02;97175.59;;;-1.44;87.73
37904;BME280;23738;50.422;18.758;2024-01-16T06:12:33;97179.85;;;-1.40;87.97
37904;BME280;23738;50.422;18.758;2024-01-16T06:15:04;97185.08;;;-1.37;88.05
37904;BME280;23738;50.422;18.758;2024-01-16T06:17:35;97191.52;;;-1.38;87.96
37904;BME280;23738;50.422;18.758;2024-01-16T06:20:06;97190.94;;;-1.42;87.99
37904;BME280;23738;50.422;18.758;2024-01-16T06:22:36;97201.55;;;-1.43;87.94
37904;BME280;23738;50.422;18.758;2024-01-16T06:25:07;97199.97;;;-1.47;88.06
37904;BME280;23738;50.422;18.758;2024-01-16T06:27:37;97207.40;;;-1.48;88.10
37904;BME280;23738;50.422;18.758;2024-01-16T06:30:09;97217.20;;;-1.49;88.05
37904;BME280;23738;50.422;18.758;2024-01-16T06:32:39;97222.48;;;-1.48;87.99
37904;BME280;23738;50.422;18.758;2024-01-16T06:35:11;97227.20;;;-1.45;87.87
37904;BME280;23738;50.422;18.758;2024-01-16T06:37:41;97228.05;;;-1.44;87.88
37904;BME280;23738;50.422;18.758;2024-01-16T06:40:13;97231.58;;;-1.44;88.14
37904;BME280;23738;50.422;18.758;2024-01-16T06:42:43;97231.19;;;-1.45;88.23
37904;BME280;23738;50.422;18.758;2024-01-16T06:45:13;97229.41;;;-1.45;88.27
37904;BME280;23738;50.422;18.758;2024-01-16T06:47:44;97231.50;;;-1.47;88.26
37904;BME280;23738;50.422;18.758;2024-01-16T06:50:14;97241.62;;;-1.48;88.41
37904;BME280;23738;50.422;18.758;2024-01-16T06:52:43;97247.70;;;-1.51;88.34
37904;BME280;23738;50.422;18.758;2024-01-16T06:55:13;97257.76;;;-1.54;88.33
37904;BME280;23738;50.422;18.758;2024-01-16T06:57:43;97264.98;;;-1.53;88.39
37904;BME280;23738;50.422;18.758;2024-01-16T07:00:17;97270.36;;;-1.54;88.33
37904;BME280;23738;50.422;18.758;2024-01-16T07:02:47;97271.23;;;-1.51;88.52
37904;BME280;23738;50.422;18.758;2024-01-16T07:05:17;97275.27;;;-1.49;88.77
37904;BME280;23738;50.422;18.758;2024-01-16T07:07:47;97265.44;;;-1.49;88.67
37904;BME280;23738;50.422;18.758;2024-01-16T07:10:18;97265.05;;;-1.51;88.79
37904;BME280;23738;50.422;18.758;2024-01-16T07:12:50;97274.65;;;-1.55;88.93
37904;BME280;23738;50.422;18.758;2024-01-16T07:15:20;97271.02;;;-1.59;88.83
37904;BME280;23738;50.422;18.758;2024-01-16T07:17:50;97268.43;;;-1.59;88.89
37904;BME280;23738;50.422;18.758;2024-01-16T07:20:20;97273.03;;;-1.55;88.84
37904;BME280;23738;50.422;18.758;2024-01-16T07:22:50;97275.69;;;-1.48;89.16
37904;BME280;23738;50.422;18.758;2024-01-16T07:25:20;97276.60;;;-1.42;89.13
37904;BME280;23738;50.422;18.758;2024-01-16T07:27:49;97277.70;;;-1.39;89.24
37904;BME280;23738;50.422;18.758;2024-01-16T07:30:19;97282.45;;;-1.38;89.37
37904;BME280;23738;50.422;18.758;2024-01-16T07:32:49;97287.66;;;-1.42;89.27
37904;BME280;23738;50.422;18.758;2024-01-16T07:35:19;97295.17;;;-1.44;89.24
37904;BME280;23738;50.422;18.758;2024-01-16T07:37:49;97299.86;;;-1.43;89.21
37904;BME280;23738;50.422;18.758;2024-01-16T07:40:19;97300.84;;;-1.36;89.43
37904;BME280;23738;50.422;18.758;2024-01-16T07:42:49;97304.39;;;-1.25;89.63
37904;BME280;23738;50.422;18.758;2024-01-16T07:45:19;97303.64;;;-1.18;89.72
37904;BME280;23738;50.422;18.758;2024-01-16T07:47:49;97313.44;;;-1.16;89.74
37904;BME280;23738;50.422;18.758;2024-01-16T07:50:19;97316.30;;;-1.18;90.27
37904;BME280;23738;50.422;18.758;2024-01-16T07:52:48;97320.44;;;-1.20;89.98
37904;BME280;23738;50.422;18.758;2024-01-16T07:55:19;97319.85;;;-1.21;89.95
37904;BME280;23738;50.422;18.758;2024-01-16T07:57:49;97324.01;;;-1.14;89.97
37904;BME280;23738;50.422;18.758;2024-01-16T08:00:20;97329.98;;;-1.08;89.97
37904;BME280;23738;50.422;18.758;2024-01-16T08:02:50;97333.48;;;-1.05;90.26
37904;BME280;23738;50.422;18.758;2024-01-16T08:05:20;97335.18;;;-1.03;90.48
37904;BME280;23738;50.422;18.758;2024-01-16T08:07:54;97338.48;;;-1.02;90.49
37904;BME280;23738;50.422;18.758;2024-01-16T08:10:23;97338.64;;;-1.00;90.45
37904;BME280;23738;50.422;18.758;2024-01-16T08:12:53;97335.30;;;-0.96;90.61
37904;BME280;23738;50.422;18.758;2024-01-16T08:15:24;97331.43;;;-0.90;90.74
37904;BME280;23738;50.422;18.758;2024-01-16T08:17:54;97334.91;;;-0.89;90.51
37904;BME280;23738;50.422;18.758;2024-01-16T08:20:24;97337.77;;;-0.85;90.60
37904;BME280;23738;50.422;18.758;2024-01-16T08:22:55;97335.99;;;-0.80;90.59
37904;BME280;23738;50.422;18.758;2024-01-16T08:25:25;97338.50;;;-0.77;90.79
37904;BME280;23738;50.422;18.758;2024-01-16T08:27:55;97337.23;;;-0.70;90.90
37904;BME280;23738;50.422;18.758;2024-01-16T08:30:24;97342.73;;;-0.44;91.26
37904;BME280;23738;50.422;18.758;2024-01-16T08:32:54;97343.61;;;-0.27;91.05
37904;BME280;23738;50.422;18.758;2024-01-16T08:35:24;97343.30;;;-0.20;91.14
37904;BME280;23738;50.422;18.758;2024-01-16T08:37:54;97353.97;;;-0.25;91.01
37904;BME280;23738;50.422;18.758;2024-01-16T08:40:24;97357.61;;;-0.33;90.89
37904;BME280;23738;50.422;18.758;2024-01-16T08:42:54;97361.65;;;-0.40;91.03
37904;BME280;23738;50.422;18.758;2024-01-16T08:45:24;97366.41;;;-0.46;91.08
37904;BME280;23738;50.422;18.758;2024-01-16T08:47:54;97368.20;;;-0.50;91.01
37904;BME280;23738;50.422;18.758;2024-01-16T08:50:24;97376.29;;;-0.53;91.15
37904;BME280;23738;50.422;18.758;2024-01-16T08:52:54;97378.15;;;-0.56;91.05
37904;BME280;23738;50.422;18.758;2024-01-16T08:55:24;97383.90;;;-0.58;91.25
37904;BME280;23738;50.422;18.758;2024-01-16T08:57:54;97385.16;;;-0.56;91.44
37904;BME280;23738;50.422;18.758;2024-01-16T09:00:24;97384.93;;;-0.54;91.15
37904;BME280;23738;50.422;18.758;2024-01-16T09:02:54;97389.81;;;-0.52;91.29
37904;BME280;23738;50.422;18.758;2024-01-16T09:05:24;97397.39;;;-0.53;91.64
37904;BME280;23738;50.422;18.758;2024-01-16T09:07:54;97400.16;;;-0.55;91.37
37904;BME280;23738;50.422;18.758;2024-01-16T09:10:24;97408.02;;;-0.54;91.30
37904;BME280;23738;50.422;18.758;2024-01-16T09:12:53;97409.27;;;-0.52;91.13
37904;BME280;23738;50.422;18.758;2024-01-16T09:15:23;97413.85;;;-0.50;91.13
37904;BME280;23738;50.422;18.758;2024-01-16T09:17:53;97412.11;;;-0.45;91.32
37904;BME280;23738;50.422;18.758;2024-01-16T09:20:23;97412.34;;;-0.37;91.35
37904;BME280;23738;50.422;18.758;2024-01-16T09:22:53;97416.81;;;-0.32;91.27
37904;BME280;23738;50.422;18.758;2024-01-16T09:25:23;97418.18;;;-0.35;91.26
37904;BME280;23738;50.422;18.758;2024-01-16T09:27:55;97420.14;;;-0.39;91.20
37904;BME280;23738;50.422;18.758;2024-01-16T09:30:25;97421.43;;;-0.43;91.32
37904;BME280;23738;50.422;18.758;2024-01-16T09:32:55;97427.20;;;-0.47;91.22
37904;BME280;23738;50.422;18.758;2024-01-16T09:35:24;97435.23;;;-0.49;91.38
37904;BME280;23738;50.422;18.758;2024-01-16T09:37:54;97434.42;;;-0.53;91.10
37904;BME280;23738;50.422;18.758;2024-01-16T09:40:24;97436.69;;;-0.53;91.41
37904;BME280;23738;50.422;18.758;2024-01-16T09:42:55;97433.48;;;-0.52;91.28
37904;BME280;23738;50.422;18.758;2024-01-16T09:45:26;97440.15;;;-0.50;91.44
37904;BME280;23738;50.422;18.758;2024-01-16T09:47:57;97444.63;;;-0.46;91.49
37904;BME280;23738;50.422;18.758;2024-01-16T09:50:28;97444.55;;;-0.44;91.53
37904;BME280;23738;50.422;18.758;2024-01-16T09:52:58;97444.56;;;-0.39;91.50
37904;BME280;23738;50.422;18.758;2024-01-16T09:55:28;97445.45;;;-0.33;91.57
37904;BME280;23738;50.422;18.758;2024-01-16T09:57:58;97446.10;;;-0.27;91.44
37904;BME280;23738;50.422;18.758;2024-01-16T10:00:29;97446.24;;;-0.22;91.61
37904;BME280;23738;50.422;18.758;2024-01-16T10:03:00;97444.92;;;-0.17;91.67
37904;BME280;23738;50.422;18.758;2024-01-16T10:05:31;97451.72;;;-0.13;91.72
37904;BME280;23738;50.422;18.758;2024-01-16T10:08:02;97449.52;;;-0.09;91.75
37904;BME280;23738;50.422;18.758;2024-01-16T10:10:32;97453.63;;;0.02;91.92
37904;BME280;23738;50.422;18.758;2024-01-16T10:13:02;97455.25;;;0.15;92.03
37904;BME280;23738;50.422;18.758;2024-01-16T10:15:33;97455.95;;;0.23;91.86
37904;BME280;23738;50.422;18.758;2024-01-16T10:18:04;97459.64;;;0.25;91.84
37904;BME280;23738;50.422;18.758;2024-01-16T10:20:35;97458.73;;;0.23;91.67
37904;BME280;23738;50.422;18.758;2024-01-16T10:23:05;97462.54;;;0.23;91.75
37904;BME280;23738;50.422;18.758;2024-01-16T10:25:35;97465.61;;;0.26;91.92
37904;BME280;23738;50.422;18.758;2024-01-16T10:28:06;97469.70;;;0.27;92.00
37904;BME280;23738;50.422;18.758;2024-01-16T10:30:39;97471.34;;;0.28;91.97
37904;BME280;23738;50.422;18.758;2024-01-16T10:33:16;97475.71;;;0.27;91.80
37904;BME280;23738;50.422;18.758;2024-01-16T10:35:46;97477.27;;;0.21;91.58
37904;BME280;23738;50.422;18.758;2024-01-16T10:38:21;97480.88;;;0.10;91.74
37904;BME280;23738;50.422;18.758;2024-01-16T10:40:52;97485.77;;;0.01;91.65
37904;BME280;23738;50.422;18.758;2024-01-16T10:43:33;97490.89;;;-0.02;91.86
37904;BME280;23738;50.422;18.758;2024-01-16T10:46:10;97493.84;;;-0.02;91.70
37904;BME280;23738;50.422;18.758;2024-01-16T10:48:44;97501.30;;;0.01;91.91
37904;BME280;23738;50.422;18.758;2024-01-16T10:51:15;97502.18;;;-0.01;92.13
37904;BME280;23738;50.422;18.758;2024-01-16T10:53:46;97506.00;;;-0.04;91.92
37904;BME280;23738;50.422;18.758;2024-01-16T10:56:18;97508.10;;;-0.06;91.70
37904;BME280;23738;50.422;18.758;2024-01-16T10:58:59;97507.52;;;-0.06;91.71
37904;BME280;23738;50.422;18.758;2024-01-16T11:01:32;97508.80;;;-0.03;91.82
37904;BME280;23738;50.422;18.758;2024-01-16T11:04:02;97508.77;;;-0.02;91.73
37904;BME280;23738;50.422;18.758;2024-01-16T11:06:33;97510.20;;;0.00;91.88
37904;BME280;23738;50.422;18.758;2024-01-16T11:09:04;97513.80;;;0.03;91.84
37904;BME280;23738;50.422;18.758;2024-01-16T11:11:37;97511.67;;;0.07;91.89
37904;BME280;23738;50.422;18.758;2024-01-16T11:14:08;97514.77;;;0.12;91.90
37904;BME280;23738;50.422;18.758;2024-01-16T11:16:40;97516.16;;;0.15;91.78
37904;BME280;23738;50.422;18.758;2024-01-16T11:19:11;97517.09;;;0.16;91.83
37904;BME280;23738;50.422;18.758;2024-01-16T11:21:42;97523.81;;;0.18;91.86
37904;BME280;23738;50.422;18.758;2024-01-16T11:24:15;97527.55;;;0.19;91.92
37904;BME280;23738;50.422;18.758;2024-01-16T11:26:45;97532.52;;;0.18;92.00
37904;BME280;23738;50.422;18.758;2024-01-16T11:29:35;97533.27;;;0.15;91.90
37904;BME280;23738;50.422;18.758;2024-01-16T11:32:08;97524.86;;;0.16;91.86
37904;BME280;23738;50.422;18.758;2024-01-16T11:34:58;97530.93;;;0.20;91.95
37904;BME280;23738;50.422;18.758;2024-01-16T11:37:29;97529.95;;;0.16;91.71
37904;BME280;23738;50.422;18.758;2024-01-16T11:40:35;97529.98;;;0.12;91.74
37904;BME280;23738;50.422;18.758;2024-01-16T11:43:38;97528.92;;;0.11;91.91
37904;BME280;23738;50.422;18.758;2024-01-16T11:46:08;97527.38;;;0.12;91.88
37904;BME280;23738;50.422;18.758;2024-01-16T11:48:38;97526.84;;;0.11;91.82
37904;BME280;23738;50.422;18.758;2024-01-16T11:51:24;97526.16;;;0.04;91.42
37904;BME280;23738;50.422;18.758;2024-01-16T11:53:56;97531.45;;;-0.03;91.45
37904;BME280;23738;50.422;18.758;2024-01-16T11:56:54;97531.92;;;-0.14;91.01
37904;BME280;23738;50.422;18.758;2024-01-16T11:59:47;97536.27;;;-0.29;91.07
37904;BME280;23738;50.422;18.758;2024-01-16T12:02:34;97531.23;;;-0.32;91.27
37904;BME280;23738;50.422;18.758;2024-01-16T12:05:07;97535.88;;;-0.30;91.44
37904;BME280;23738;50.422;18.758;2024-01-16T12:07:47;97540.52;;;-0.26;91.43
37904;BME280;23738;50.422;18.758;2024-01-16T12:10:21;97538.79;;;-0.25;91.50
37904;BME280;23738;50.422;18.758;2024-01-16T12:12:56;97542.52;;;-0.23;91.38
37904;BME280;23738;50.422;18.758;2024-01-16T12:15:28;97545.29;;;-0.23;91.51
37904;BME280;23738;50.422;18.758;2024-01-16T12:17:59;97542.61;;;-0.20;91.58
37904;BME280;23738;50.422;18.758;2024-01-16T12:20:30;97551.66;;;-0.19;91.56
37904;BME280;23738;50.422;18.758;2024-01-16T12:23:02;97546.19;;;-0.19;91.65
37904;BME280;23738;50.422;18.758;2024-01-16T12:25:33;97547.14;;;-0.15;91.68
37904;BME280;23738;50.422;18.758;2024-01-16T12:28:05;97549.44;;;-0.09;91.58
37904;BME280;23738;50.422;18.758;2024-01-16T12:30:36;97547.04;;;0.01;91.84
37904;BME280;23738;50.422;18.758;2024-01-16T12:33:08;97544.59;;;0.15;91.94
37904;BME280;23738;50.422;18.758;2024-01-16T12:35:40;97539.38;;;0.31;92.08
37904;BME280;23738;50.422;18.758;2024-01-16T12:38:10;97540.08;;;0.48;92.10
37904;BME280;23738;50.422;18.758;2024-01-16T12:40:44;97534.58;;;0.52;91.92
37904;BME280;23738;50.422;18.758;2024-01-16T12:43:15;97534.54;;;0.53;91.73
37904;BME280;23738;50.422;18.758;2024-01-16T12:45:45;97535.98;;;0.57;91.80
37904;BME280;23738;50.422;18.758;2024-01-16T12:48:21;97537.54;;;0.60;91.75
37904;BME280;23738;50.422;18.758;2024-01-16T12:50:52;97542.41;;;0.62;91.27
37904;BME280;23738;50.422;18.758;2024-01-16T12:53:28;97540.29;;;0.59;91.77
37904;BME280;23738;50.422;18.758;2024-01-16T12:56:01;97542.94;;;0.63;91.97
37904;BME280;23738;50.422;18.758;2024-01-16T12:58:35;97540.60;;;0.64;91.70
37904;BME280;23738;50.422;18.758;2024-01-16T13:01:22;97542.98;;;0.58;91.62
37904;BME280;23738;50.422;18.758;2024-01-16T13:03:53;97544.56;;;0.48;91.36
37904;BME280;23738;50.422;18.758;2024-01-16T13:06:24;97545.55;;;0.42;91.40
37904;BME280;23738;50.422;18.758;2024-01-16T13:09:06;97549.04;;;0.40;91.43
37904;BME280;23738;50.422;18.758;2024-01-16T13:11:50;97544.11;;;0.46;91.36
37904;BME280;23738;50.422;18.758;2024-01-16T13:14:23;97546.84;;;0.51;91.37